Time;durP1;ratioP1;P1;durP2;ratioP2;P2;SDS_P1;SDS_P2;PMS_P1;PMS_P2;Temp;Humidity;BMP_temperature;BMP_pressure;BME280_temperature;BME280_humidity;BME280_pressure;Samples;Min_cycle;Max_cycle;Signal;HPM_P1;HPM_P2
2023/10/24 00:00:30;;;;;;;6.50;3.28;;;;;;;;;;5098714;28;20327;-72
2023/10/24 00:02:55;;;;;;;5.90;3.28;;;;;;;;;;5098298;28;20035;-72
2023/10/24 00:05:20;;;;;;;5.70;3.00;;;;;;;;;;5097803;28;20023;-75
2023/10/24 00:07:46;;;;;;;4.68;2.75;;;;;;;;;;5086313;28;20051;-80
2023/10/24 00:10:11;;;;;;;5.40;3.08;;;;;;;;;;5094754;28;20024;-81
2023/10/24 00:12:37;;;;;;;6.50;3.08;;;;;;;;;;5098043;28;20043;-73
2023/10/24 00:15:02;;;;;;;5.90;3.38;;;;;;;;;;5099142;28;20051;-80
2023/10/24 00:17:28;;;;;;;5.72;2.92;;;;;;;;;;5087528;28;20023;-73
2023/10/24 00:19:53;;;;;;;4.90;2.65;;;;;;;;;;5096037;28;20023;-72
2023/10/24 00:22:19;;;;;;;5.28;3.10;;;;;;;;;;5096081;28;20023;-73
2023/10/24 00:24:44;;;;;;;4.65;2.80;;;;;;;;;;5095740;28;20028;-73
2023/10/24 00:27:09;;;;;;;4.75;2.63;;;;;;;;;;5093632;28;20024;-73
2023/10/24 00:29:35;;;;;;;6.18;3.20;;;;;;;;;;5098236;28;20112;-77
2023/10/24 00:32:00;;;;;;;5.95;2.85;;;;;;;;;;5098082;28;20023;-73
2023/10/24 00:34:25;;;;;;;3.85;2.78;;;;;;;;;;5094867;28;20052;-80
2023/10/24 00:36:51;;;;;;;5.72;2.85;;;;;;;;;;5095924;28;20054;-76
2023/10/24 00:39:16;;;;;;;9.05;2.63;;;;;;;;;;5096692;28;20102;-74
2023/10/24 00:41:41;;;;;;;5.28;3.15;;;;;;;;;;5096847;28;20580;-77
2023/10/24 00:44:07;;;;;;;4.75;2.75;;;;;;;;;;5096064;28;20130;-74
2023/10/24 00:46:33;;;;;;;4.90;2.70;;;;;;;;;;5095321;28;20146;-73
2023/10/24 00:48:58;;;;;;;3.95;2.83;;;;;;;;;;5098356;28;20081;-74
2023/10/24 00:51:24;;;;;;;6.75;3.28;;;;;;;;;;5095123;28;20037;-74
2023/10/24 00:53:49;;;;;;;5.80;2.88;;;;;;;;;;5095595;28;20016;-78
2023/10/24 00:56:15;;;;;;;10.18;3.65;;;;;;;;;;5096637;28;20023;-75
2023/10/24 00:58:41;;;;;;;7.57;4.53;;;;;;;;;;5097276;28;20032;-78
2023/10/24 01:01:10;;;;;;;7.57;3.83;;;;;;;;;;5091485;28;20043;-74
2023/10/24 01:03:35;;;;;;;5.35;4.05;;;;;;;;;;5090923;28;20070;-78
2023/10/24 01:06:01;;;;;;;7.00;4.80;;;;;;;;;;5095393;28;20063;-77
2023/10/24 01:08:27;;;;;;;7.10;3.85;;;;;;;;;;5085552;28;20088;-76
2023/10/24 01:10:52;;;;;;;6.53;3.35;;;;;;;;;;5096028;28;20043;-74
2023/10/24 01:13:17;;;;;;;4.03;3.28;;;;;;;;;;5087431;28;20059;-73
2023/10/24 01:15:43;;;;;;;5.63;3.28;;;;;;;;;;5094790;28;20051;-75
2023/10/24 01:18:08;;;;;;;5.30;3.35;;;;;;;;;;5083964;28;20420;-73
2023/10/24 01:20:34;;;;;;;4.05;2.88;;;;;;;;;;5081205;28;20422;-75
2023/10/24 01:22:59;;;;;;;4.07;2.42;;;;;;;;;;5085757;28;20095;-80
2023/10/24 01:25:26;;;;;;;4.70;2.47;;;;;;;;;;5097951;28;20400;-77
2023/10/24 01:27:53;;;;;;;3.75;2.35;;;;;;;;;;5096831;28;21220;-75
2023/10/24 01:30:19;;;;;;;4.00;2.17;;;;;;;;;;5094533;28;20026;-72
2023/10/24 01:32:44;;;;;;;5.25;2.13;;;;;;;;;;5096850;28;20020;-75
2023/10/24 01:35:10;;;;;;;4.55;2.50;;;;;;;;;;5096658;28;20051;-73
2023/10/24 01:37:35;;;;;;;4.00;2.08;;;;;;;;;;5096734;28;20040;-78
2023/10/24 01:40:02;;;;;;;4.90;2.63;;;;;;;;;;5098107;28;20063;-73
2023/10/24 01:42:28;;;;;;;5.28;2.55;;;;;;;;;;5097297;28;20039;-78
2023/10/24 01:44:53;;;;;;;5.15;2.38;;;;;;;;;;5086083;28;20024;-73
2023/10/24 01:47:19;;;;;;;4.88;2.47;;;;;;;;;;5095131;28;20453;-79
2023/10/24 01:49:44;;;;;;;4.35;2.55;;;;;;;;;;5097541;27;20024;-75
2023/10/24 01:52:10;;;;;;;5.20;2.28;;;;;;;;;;5099203;28;20024;-75
2023/10/24 01:54:35;;;;;;;4.68;2.50;;;;;;;;;;5099302;28;20055;-80
2023/10/24 01:57:01;;;;;;;4.60;2.30;;;;;;;;;;5101536;27;20024;-74
2023/10/24 01:59:26;;;;;;;2.92;2.00;;;;;;;;;;5099191;28;20020;-74
2023/10/24 02:01:51;;;;;;;6.20;2.28;;;;;;;;;;5091924;28;20027;-74
2023/10/24 02:04:17;;;;;;;5.07;2.90;;;;;;;;;;5095242;28;20027;-73
2023/10/24 02:06:42;;;;;;;6.30;2.70;;;;;;;;;;5097325;28;20339;-74
2023/10/24 02:09:07;;;;;;;5.05;2.58;;;;;;;;;;5101266;28;20100;-78
2023/10/24 02:11:33;;;;;;;5.78;2.95;;;;;;;;;;5098804;28;20019;-74
2023/10/24 02:13:58;;;;;;;6.07;2.78;;;;;;;;;;5098022;28;20462;-77
2023/10/24 02:16:24;;;;;;;3.72;2.63;;;;;;;;;;5101813;28;20028;-75
2023/10/24 02:18:49;;;;;;;4.65;2.38;;;;;;;;;;5090715;27;20036;-73
2023/10/24 02:21:14;;;;;;;5.53;2.72;;;;;;;;;;5094041;28;20074;-78
2023/10/24 02:23:39;;;;;;;4.57;2.30;;;;;;;;;;5100134;28;20035;-74
2023/10/24 02:26:05;;;;;;;5.28;2.65;;;;;;;;;;5099311;28;20032;-74
2023/10/24 02:28:31;;;;;;;5.88;2.60;;;;;;;;;;5099763;28;20023;-72
2023/10/24 02:30:56;;;;;;;5.90;2.78;;;;;;;;;;5099197;28;20027;-75
2023/10/24 02:33:22;;;;;;;3.33;2.35;;;;;;;;;;5099013;28;20027;-74
2023/10/24 02:35:47;;;;;;;3.50;2.28;;;;;;;;;;5100543;27;20093;-77
2023/10/24 02:38:12;;;;;;;4.00;2.40;;;;;;;;;;5099342;28;20031;-78
2023/10/24 02:40:38;;;;;;;4.00;2.75;;;;;;;;;;5099452;28;20036;-74
2023/10/24 02:43:03;;;;;;;5.47;2.47;;;;;;;;;;5092213;28;20312;-82
2023/10/24 02:45:28;;;;;;;3.92;2.13;;;;;;;;;;5086166;28;20019;-76
2023/10/24 02:47:54;;;;;;;4.00;2.38;;;;;;;;;;5100074;28;20046;-80
2023/10/24 02:50:20;;;;;;;7.53;2.60;;;;;;;;;;5099101;28;20066;-76
2023/10/24 02:52:45;;;;;;;5.82;2.38;;;;;;;;;;5100193;28;20416;-84
2023/10/24 02:55:11;;;;;;;5.95;2.30;;;;;;;;;;5096954;28;20043;-74
2023/10/24 02:57:37;;;;;;;3.90;2.05;;;;;;;;;;5100018;28;20027;-76
2023/10/24 03:00:03;;;;;;;6.70;2.30;;;;;;;;;;5099118;28;20047;-80
2023/10/24 03:02:28;;;;;;;4.57;2.00;;;;;;;;;;5100223;28;20101;-78
2023/10/24 03:04:53;;;;;;;4.65;2.20;;;;;;;;;;5099741;28;20035;-73
2023/10/24 03:07:19;;;;;;;3.45;2.03;;;;;;;;;;5099609;28;20024;-73
2023/10/24 03:09:44;;;;;;;8.38;2.67;;;;;;;;;;5098843;28;20460;-74
2023/10/24 03:12:09;;;;;;;4.75;2.58;;;;;;;;;;5101712;27;20396;-73
2023/10/24 03:14:35;;;;;;;5.53;2.95;;;;;;;;;;5098751;28;20553;-74
2023/10/24 03:17:00;;;;;;;4.18;2.60;;;;;;;;;;5099182;28;20027;-74
2023/10/24 03:19:27;;;;;;;2.88;1.98;;;;;;;;;;5099699;28;20027;-75
2023/10/24 03:21:52;;;;;;;3.95;2.70;;;;;;;;;;5097641;28;20100;-77
2023/10/24 03:24:18;;;;;;;3.80;2.90;;;;;;;;;;5100043;28;20031;-74
2023/10/24 03:26:43;;;;;;;4.30;3.00;;;;;;;;;;5093888;28;20450;-75
2023/10/24 03:29:09;;;;;;;4.93;3.00;;;;;;;;;;5096228;28;20114;-79
2023/10/24 03:31:35;;;;;;;5.40;3.60;;;;;;;;;;5098464;28;20031;-74
2023/10/24 03:34:00;;;;;;;5.30;3.67;;;;;;;;;;5096880;28;20020;-76
2023/10/24 03:36:26;;;;;;;7.45;5.63;;;;;;;;;;5098664;28;20477;-75
2023/10/24 03:38:51;;;;;;;12.75;10.32;;;;;;;;;;5100515;28;20035;-80
2023/10/24 03:41:17;;;;;;;20.83;17.40;;;;;;;;;;5092296;28;20031;-76
2023/10/24 03:43:48;;;;;;;11.77;9.90;;;;;;;;;;5092008;28;20034;-75
2023/10/24 03:46:13;;;;;;;9.70;8.60;;;;;;;;;;5091246;28;20444;-75
2023/10/24 03:48:38;;;;;;;11.50;8.45;;;;;;;;;;5100488;28;20028;-73
2023/10/24 03:51:04;;;;;;;7.57;5.13;;;;;;;;;;5094706;28;20098;-74
2023/10/24 03:53:29;;;;;;;6.82;5.07;;;;;;;;;;5095490;28;20711;-75
2023/10/24 03:55:55;;;;;;;6.40;4.35;;;;;;;;;;5095941;28;20023;-74
2023/10/24 03:58:21;;;;;;;8.65;5.47;;;;;;;;;;5087160;28;20451;-74
2023/10/24 04:00:46;;;;;;;13.95;10.82;;;;;;;;;;5093684;28;20027;-82
2023/10/24 04:03:11;;;;;;;27.00;20.60;;;;;;;;;;5096815;28;20031;-77
2023/10/24 04:05:38;;;;;;;20.63;15.30;;;;;;;;;;5082760;28;20035;-76
2023/10/24 04:08:03;;;;;;;20.48;15.88;;;;;;;;;;5092172;28;20063;-73
2023/10/24 04:10:29;;;;;;;14.15;11.25;;;;;;;;;;5088170;28;20141;-76
2023/10/24 04:12:54;;;;;;;13.32;11.35;;;;;;;;;;5084315;28;20015;-73
2023/10/24 04:15:20;;;;;;;13.73;8.13;;;;;;;;;;5083889;28;20031;-73
2023/10/24 04:17:45;;;;;;;23.15;12.43;;;;;;;;;;5083009;28;20109;-79
2023/10/24 04:20:10;;;;;;;13.70;9.25;;;;;;;;;;5085071;28;20035;-78
2023/10/24 04:22:36;;;;;;;12.50;7.07;;;;;;;;;;5096438;28;20018;-78
2023/10/24 04:25:01;;;;;;;9.10;5.60;;;;;;;;;;5096573;28;20088;-77
2023/10/24 04:27:26;;;;;;;14.43;9.93;;;;;;;;;;5094161;28;20023;-75
2023/10/24 04:29:52;;;;;;;19.55;13.80;;;;;;;;;;5093153;28;20047;-77
2023/10/24 04:32:17;;;;;;;13.90;8.80;;;;;;;;;;5090828;28;20364;-72
2023/10/24 04:34:43;;;;;;;15.23;5.85;;;;;;;;;;5085514;28;20023;-74
2023/10/24 04:37:08;;;;;;;49.05;30.23;;;;;;;;;;5086775;28;20051;-74
2023/10/24 04:39:48;;;;;;;38.65;24.65;;;;;;;;;;5064582;28;20062;-76
2023/10/24 04:42:14;;;;;;;57.30;33.08;;;;;;;;;;5098957;28;20335;-75
2023/10/24 04:44:39;;;;;;;49.88;31.40;;;;;;;;;;5097699;28;20071;-74
2023/10/24 04:47:05;;;;;;;35.05;22.25;;;;;;;;;;5090749;28;20024;-76
2023/10/24 04:49:30;;;;;;;25.10;17.73;;;;;;;;;;5090897;28;20038;-74
2023/10/24 04:51:55;;;;;;;15.32;9.45;;;;;;;;;;5097805;28;20026;-75
2023/10/24 04:54:21;;;;;;;13.18;7.15;;;;;;;;;;5098662;28;20024;-75
2023/10/24 04:56:46;;;;;;;11.98;7.25;;;;;;;;;;5098204;28;20466;-78
2023/10/24 04:59:11;;;;;;;12.88;8.90;;;;;;;;;;5097658;28;20032;-78
2023/10/24 05:01:40;;;;;;;15.93;10.85;;;;;;;;;;5087571;28;20028;-75
2023/10/24 05:04:05;;;;;;;29.08;21.35;;;;;;;;;;5091423;28;20041;-75
2023/10/24 05:06:31;;;;;;;20.85;13.27;;;;;;;;;;5095564;28;20335;-75
2023/10/24 05:08:56;;;;;;;31.50;23.90;;;;;;;;;;5097711;28;20116;-76
2023/10/24 05:11:22;;;;;;;71.70;53.40;;;;;;;;;;5099195;28;20020;-76
2023/10/24 05:13:47;;;;;;;33.95;22.77;;;;;;;;;;5098190;28;20058;-78
2023/10/24 05:16:12;;;;;;;16.25;10.88;;;;;;;;;;5088131;28;20034;-77
2023/10/24 05:18:38;;;;;;;13.13;6.15;;;;;;;;;;5084856;28;20036;-80
2023/10/24 05:21:03;;;;;;;8.55;4.40;;;;;;;;;;5081981;28;20035;-76
2023/10/24 05:23:29;;;;;;;8.32;4.55;;;;;;;;;;5092135;28;20027;-74
2023/10/24 05:25:55;;;;;;;10.32;4.57;;;;;;;;;;5092611;28;20020;-76
2023/10/24 05:28:20;;;;;;;11.93;5.10;;;;;;;;;;5095312;28;20032;-77
2023/10/24 05:30:46;;;;;;;15.00;7.65;;;;;;;;;;5100492;28;20026;-75
2023/10/24 05:33:11;;;;;;;28.73;21.13;;;;;;;;;;5092662;28;20023;-79
2023/10/24 05:35:36;;;;;;;15.32;8.82;;;;;;;;;;5071891;28;20044;-76
2023/10/24 05:38:02;;;;;;;16.55;9.38;;;;;;;;;;5081794;28;20038;-75
2023/10/24 05:40:27;;;;;;;14.38;9.82;;;;;;;;;;5098826;28;20471;-76
2023/10/24 05:42:53;;;;;;;24.48;18.45;;;;;;;;;;5099243;28;20461;-75
2023/10/24 05:45:18;;;;;;;13.85;10.00;;;;;;;;;;5102845;28;20303;-74
2023/10/24 05:47:43;;;;;;;12.80;10.25;;;;;;;;;;5084503;28;20027;-74
2023/10/24 05:50:09;;;;;;;11.05;6.03;;;;;;;;;;5101902;28;20024;-81
2023/10/24 05:52:34;;;;;;;11.95;5.53;;;;;;;;;;5098690;28;20019;-76
2023/10/24 05:55:00;;;;;;;10.90;5.25;;;;;;;;;;5101326;28;20392;-76
2023/10/24 05:57:25;;;;;;;10.05;5.63;;;;;;;;;;5100359;28;20038;-78
2023/10/24 05:59:50;;;;;;;13.02;5.75;;;;;;;;;;5099901;28;20034;-76
2023/10/24 06:02:16;;;;;;;9.30;5.00;;;;;;;;;;5101371;27;20031;-77
2023/10/24 06:04:41;;;;;;;11.85;4.22;;;;;;;;;;5099504;28;20429;-76
2023/10/24 06:07:07;;;;;;;9.68;4.47;;;;;;;;;;5098691;28;20473;-74
2023/10/24 06:09:32;;;;;;;9.30;4.55;;;;;;;;;;5098992;28;20023;-76
2023/10/24 06:11:58;;;;;;;13.60;5.80;;;;;;;;;;5097697;28;20355;-75
2023/10/24 06:14:23;;;;;;;15.05;6.00;;;;;;;;;;5099099;28;20020;-79
2023/10/24 06:16:48;;;;;;;21.70;10.98;;;;;;;;;;5099038;28;20024;-78
2023/10/24 06:19:14;;;;;;;11.65;5.88;;;;;;;;;;5099060;28;20595;-76
2023/10/24 06:21:39;;;;;;;15.98;6.10;;;;;;;;;;5094347;28;20055;-79
2023/10/24 06:24:05;;;;;;;22.55;14.02;;;;;;;;;;5095131;28;20486;-76
2023/10/24 06:26:30;;;;;;;17.25;11.18;;;;;;;;;;5094664;28;20496;-74
2023/10/24 06:28:55;;;;;;;21.65;14.73;;;;;;;;;;5093287;28;20032;-74
2023/10/24 06:31:21;;;;;;;20.02;9.40;;;;;;;;;;5084585;28;20036;-75
2023/10/24 06:33:46;;;;;;;27.35;18.83;;;;;;;;;;5096474;28;20447;-74
2023/10/24 06:36:12;;;;;;;59.53;41.95;;;;;;;;;;5099213;28;20047;-76
2023/10/24 06:38:37;;;;;;;20.80;12.43;;;;;;;;;;5096753;28;20111;-77
2023/10/24 06:41:05;;;;;;;13.98;9.63;;;;;;;;;;5100036;28;20078;-77
2023/10/24 06:43:31;;;;;;;11.80;7.15;;;;;;;;;;5098265;28;20710;-75
2023/10/24 06:45:56;;;;;;;17.25;7.53;;;;;;;;;;5098950;28;20028;-76
2023/10/24 06:48:21;;;;;;;16.35;9.43;;;;;;;;;;5099111;28;20019;-74
2023/10/24 06:50:47;;;;;;;16.10;9.15;;;;;;;;;;5098850;28;20216;-76
2023/10/24 06:53:13;;;;;;;21.08;10.18;;;;;;;;;;5097652;28;20111;-80
2023/10/24 06:55:38;;;;;;;21.85;9.48;;;;;;;;;;5101124;28;20496;-79
2023/10/24 06:58:04;;;;;;;16.15;8.93;;;;;;;;;;5095215;28;20105;-77
2023/10/24 07:00:29;;;;;;;13.60;9.98;;;;;;;;;;5099969;28;20019;-78
2023/10/24 07:02:55;;;;;;;16.33;8.68;;;;;;;;;;5097184;28;20545;-77
2023/10/24 07:05:20;;;;;;;18.42;9.48;;;;;;;;;;5097895;28;20023;-76
2023/10/24 07:07:45;;;;;;;18.17;9.25;;;;;;;;;;5097953;28;20022;-75
2023/10/24 07:10:11;;;;;;;17.00;9.48;;;;;;;;;;5100993;28;20106;-76
2023/10/24 07:12:36;;;;;;;20.67;10.23;;;;;;;;;;5099530;28;20027;-81
2023/10/24 07:15:03;;;;;;;22.73;10.05;;;;;;;;;;5099800;28;20031;-76
2023/10/24 07:17:29;;;;;;;23.38;11.10;;;;;;;;;;5100220;28;20102;-77
2023/10/24 07:19:54;;;;;;;20.33;11.80;;;;;;;;;;5099227;28;20122;-76
2023/10/24 07:22:20;;;;;;;20.67;11.07;;;;;;;;;;5101687;28;20426;-77
2023/10/24 07:24:45;;;;;;;18.65;11.00;;;;;;;;;;5099675;28;20024;-77
2023/10/24 07:27:10;;;;;;;17.83;10.15;;;;;;;;;;5099261;28;20038;-77
2023/10/24 07:29:36;;;;;;;14.82;8.40;;;;;;;;;;5101317;28;20036;-80
2023/10/24 07:32:01;;;;;;;14.48;7.88;;;;;;;;;;5099525;28;20028;-77
2023/10/24 07:34:27;;;;;;;19.50;9.75;;;;;;;;;;5100444;28;20024;-79
2023/10/24 07:36:52;;;;;;;23.38;12.93;;;;;;;;;;5102764;28;20059;-80
2023/10/24 07:39:17;;;;;;;21.08;11.20;;;;;;;;;;5099373;28;20032;-77
2023/10/24 07:41:43;;;;;;;21.00;11.57;;;;;;;;;;5098002;28;20439;-78
2023/10/24 07:44:09;;;;;;;14.10;8.20;;;;;;;;;;5099100;28;21075;-79
2023/10/24 07:46:34;;;;;;;16.33;8.90;;;;;;;;;;5098871;28;20062;-77
2023/10/24 07:48:59;;;;;;;12.60;8.35;;;;;;;;;;5098933;28;20476;-78
2023/10/24 07:51:27;;;;;;;12.05;6.93;;;;;;;;;;5096817;28;20494;-81
2023/10/24 07:53:53;;;;;;;16.40;7.88;;;;;;;;;;5095674;28;20088;-79
2023/10/24 07:56:18;;;;;;;16.08;9.05;;;;;;;;;;5099939;28;20031;-78
2023/10/24 07:58:43;;;;;;;16.08;8.95;;;;;;;;;;5097451;28;20036;-76
2023/10/24 08:01:09;;;;;;;15.50;9.27;;;;;;;;;;5097174;28;20411;-78
2023/10/24 08:03:34;;;;;;;20.40;10.27;;;;;;;;;;5091142;28;20397;-77
2023/10/24 08:05:59;;;;;;;20.60;11.98;;;;;;;;;;5071698;28;20405;-78
2023/10/24 08:08:25;;;;;;;13.75;6.80;;;;;;;;;;5073308;28;20032;-80
2023/10/24 08:10:50;;;;;;;10.77;5.97;;;;;;;;;;5073063;28;20031;-81
2023/10/24 08:13:15;;;;;;;12.82;7.00;;;;;;;;;;5072644;27;20075;-77
2023/10/24 08:15:42;;;;;;;13.20;5.50;;;;;;;;;;5073845;28;20118;-77
2023/10/24 08:18:08;;;;;;;14.00;5.03;;;;;;;;;;5073495;28;20363;-77
2023/10/24 08:20:33;;;;;;;13.98;4.90;;;;;;;;;;5077347;28;20027;-76
2023/10/24 08:22:58;;;;;;;12.55;4.47;;;;;;;;;;5076280;28;20020;-77
2023/10/24 08:25:24;;;;;;;11.43;5.03;;;;;;;;;;5074744;28;20024;-75
2023/10/24 08:27:49;;;;;;;15.55;6.03;;;;;;;;;;5073524;28;20020;-77
2023/10/24 08:30:15;;;;;;;16.52;5.85;;;;;;;;;;5076493;28;20034;-83
2023/10/24 08:32:40;;;;;;;16.38;6.25;;;;;;;;;;5073762;28;20032;-79
2023/10/24 08:35:05;;;;;;;12.23;5.13;;;;;;;;;;5076627;28;20168;-78
2023/10/24 08:37:32;;;;;;;13.43;5.20;;;;;;;;;;5070097;28;20479;-79
2023/10/24 08:39:57;;;;;;;12.10;4.80;;;;;;;;;;5072180;28;20458;-76
2023/10/24 08:42:22;;;;;;;9.85;4.97;;;;;;;;;;5075634;28;20024;-76
2023/10/24 08:44:49;;;;;;;13.77;4.88;;;;;;;;;;5072655;28;20027;-78
2023/10/24 08:47:14;;;;;;;11.15;5.00;;;;;;;;;;5070308;28;20062;-77
2023/10/24 08:49:40;;;;;;;14.70;5.18;;;;;;;;;;5070406;28;20667;-80
2023/10/24 08:52:05;;;;;;;15.43;4.68;;;;;;;;;;5071172;28;20511;-76
2023/10/24 08:54:31;;;;;;;12.95;5.55;;;;;;;;;;5070083;28;20028;-78
2023/10/24 08:56:57;;;;;;;13.90;5.50;;;;;;;;;;5069485;28;20028;-76
2023/10/24 08:59:24;;;;;;;11.85;5.30;;;;;;;;;;5072286;28;20040;-79
2023/10/24 09:01:49;;;;;;;10.23;4.93;;;;;;;;;;5091476;28;20051;-77
2023/10/24 09:04:15;;;;;;;17.80;6.00;;;;;;;;;;5080949;28;20445;-78
2023/10/24 09:06:41;;;;;;;16.67;5.60;;;;;;;;;;5081277;28;20023;-77
2023/10/24 09:09:06;;;;;;;15.27;5.97;;;;;;;;;;5070201;28;20422;-78
2023/10/24 09:11:50;;;;;;;14.30;6.28;;;;;;;;;;5075058;28;20031;-79
2023/10/24 09:14:16;;;;;;;14.57;4.95;;;;;;;;;;5072360;28;20024;-78
2023/10/24 09:16:41;;;;;;;25.73;6.93;;;;;;;;;;5079800;28;20028;-78
2023/10/24 09:19:11;;;;;;;12.90;4.97;;;;;;;;;;5094908;28;20044;-79
2023/10/24 09:21:36;;;;;;;16.50;4.80;;;;;;;;;;5095169;28;20024;-79
2023/10/24 09:24:05;;;;;;;17.42;5.60;;;;;;;;;;5096275;28;20028;-78
2023/10/24 09:26:30;;;;;;;13.27;4.33;;;;;;;;;;5091426;28;20031;-78
2023/10/24 09:28:57;;;;;;;13.63;5.03;;;;;;;;;;5075903;28;20263;-78
2023/10/24 09:31:23;;;;;;;16.83;5.82;;;;;;;;;;5075448;28;20069;-79
2023/10/24 09:33:48;;;;;;;15.80;8.95;;;;;;;;;;5074388;28;20030;-78
2023/10/24 09:36:22;;;;;;;16.52;7.70;;;;;;;;;;5074545;28;20056;-78
2023/10/24 09:38:48;;;;;;;13.82;6.30;;;;;;;;;;5074824;28;20028;-76
2023/10/24 09:41:13;;;;;;;13.18;7.30;;;;;;;;;;5076278;28;20042;-80
2023/10/24 09:43:41;;;;;;;22.58;13.18;;;;;;;;;;5080621;28;20070;-77
2023/10/24 09:46:07;;;;;;;36.67;24.15;;;;;;;;;;5095632;28;20119;-79
2023/10/24 09:48:32;;;;;;;22.63;12.18;;;;;;;;;;5092749;28;20114;-77
2023/10/24 09:50:59;;;;;;;29.67;21.63;;;;;;;;;;5094161;28;20030;-78
2023/10/24 09:53:24;;;;;;;75.03;58.60;;;;;;;;;;5096541;28;20084;-78
2023/10/24 09:55:50;;;;;;;75.68;56.83;;;;;;;;;;5097615;28;20019;-77
2023/10/24 09:58:16;;;;;;;32.67;18.67;;;;;;;;;;5098676;28;20099;-78
2023/10/24 10:00:42;;;;;;;12.57;7.03;;;;;;;;;;5095644;28;20024;-77
2023/10/24 10:03:09;;;;;;;17.40;9.20;;;;;;;;;;5098403;28;20043;-77
2023/10/24 10:05:35;;;;;;;17.65;8.27;;;;;;;;;;5085160;28;20034;-72
2023/10/24 10:08:00;;;;;;;14.77;7.25;;;;;;;;;;5076241;28;20020;-78
2023/10/24 10:10:26;;;;;;;12.93;5.00;;;;;;;;;;5080314;28;20028;-73
2023/10/24 10:12:53;;;;;;;10.95;5.15;;;;;;;;;;5078031;28;20889;-73
2023/10/24 10:15:38;;;;;;;23.10;12.93;;;;;;;;;;5076085;28;20030;-74
2023/10/24 10:18:07;;;;;;;11.90;4.63;;;;;;;;;;5077975;28;20024;-76
2023/10/24 10:20:32;;;;;;;9.52;4.72;;;;;;;;;;5078229;28;20027;-77
2023/10/24 10:23:01;;;;;;;16.05;5.28;;;;;;;;;;5095461;28;20070;-79
2023/10/24 10:25:49;;;;;;;10.70;5.45;;;;;;;;;;5101894;28;20031;-77
2023/10/24 10:28:18;;;;;;;20.23;5.50;;;;;;;;;;5099010;28;20035;-76
2023/10/24 10:30:50;;;;;;;15.17;6.40;;;;;;;;;;5099063;28;20031;-80
2023/10/24 10:33:18;;;;;;;9.27;4.10;;;;;;;;;;5101435;28;20024;-77
2023/10/24 10:35:47;;;;;;;9.60;3.75;;;;;;;;;;5099797;27;20053;-77
2023/10/24 10:38:12;;;;;;;10.85;5.78;;;;;;;;;;5101164;28;20043;-78
2023/10/24 10:40:37;;;;;;;13.02;6.32;;;;;;;;;;5102068;27;20024;-76
2023/10/24 10:43:03;;;;;;;15.50;6.13;;;;;;;;;;5099388;28;20153;-76
2023/10/24 10:45:29;;;;;;;20.33;6.47;;;;;;;;;;5100222;28;20106;-77
2023/10/24 10:47:56;;;;;;;14.45;5.60;;;;;;;;;;5100935;28;20023;-78
2023/10/24 10:50:24;;;;;;;16.20;4.60;;;;;;;;;;5102733;28;20509;-78
2023/10/24 10:52:57;;;;;;;8.77;4.75;;;;;;;;;;5101435;28;20020;-77
2023/10/24 10:55:37;;;;;;;14.63;6.10;;;;;;;;;;5100783;28;20027;-77
2023/10/24 10:58:18;;;;;;;11.93;4.70;;;;;;;;;;5100896;28;20028;-80
2023/10/24 11:00:46;;;;;;;12.95;5.15;;;;;;;;;;5101145;28;20047;-78
2023/10/24 11:03:28;;;;;;;11.88;4.13;;;;;;;;;;5096368;28;20404;-78
2023/10/24 11:05:53;;;;;;;9.07;3.42;;;;;;;;;;5102089;28;20035;-77
2023/10/24 11:08:22;;;;;;;11.27;3.55;;;;;;;;;;5100216;28;20035;-76
2023/10/24 11:10:59;;;;;;;12.25;3.90;;;;;;;;;;5099208;28;20034;-77
2023/10/24 11:13:31;;;;;;;25.05;6.22;;;;;;;;;;5100454;28;20118;-76
2023/10/24 11:15:56;;;;;;;15.80;5.75;;;;;;;;;;5100856;28;20027;-78
2023/10/24 11:18:22;;;;;;;14.32;5.05;;;;;;;;;;5099244;28;20031;-76
2023/10/24 11:20:47;;;;;;;11.73;3.25;;;;;;;;;;5100340;28;20023;-77
2023/10/24 11:23:13;;;;;;;9.40;3.70;;;;;;;;;;5100812;28;20058;-77
2023/10/24 11:25:39;;;;;;;10.88;3.55;;;;;;;;;;5100978;28;20059;-78
2023/10/24 11:28:06;;;;;;;9.85;3.55;;;;;;;;;;5100984;28;20348;-77
2023/10/24 11:30:31;;;;;;;12.25;3.88;;;;;;;;;;5100636;28;20039;-77
2023/10/24 11:32:57;;;;;;;8.45;3.67;;;;;;;;;;5099840;28;20012;-77
2023/10/24 11:35:22;;;;;;;12.27;4.47;;;;;;;;;;5098166;28;20119;-77
2023/10/24 11:37:47;;;;;;;13.90;6.28;;;;;;;;;;5099112;28;20355;-77
2023/10/24 11:40:13;;;;;;;14.57;8.90;;;;;;;;;;5097031;28;20120;-78
2023/10/24 11:42:38;;;;;;;10.75;8.45;;;;;;;;;;5098532;28;20031;-77
2023/10/24 11:45:04;;;;;;;13.02;5.95;;;;;;;;;;5100582;28;20730;-77
2023/10/24 11:47:29;;;;;;;11.95;5.22;;;;;;;;;;5100282;28;20362;-76
2023/10/24 11:49:55;;;;;;;8.60;3.92;;;;;;;;;;5100676;28;20071;-77
2023/10/24 11:52:20;;;;;;;10.57;3.60;;;;;;;;;;5097477;28;20028;-78
2023/10/24 11:54:51;;;;;;;10.15;3.33;;;;;;;;;;5101557;28;20738;-76
2023/10/24 11:57:17;;;;;;;16.10;4.30;;;;;;;;;;5099348;28;20084;-79
2023/10/24 11:59:42;;;;;;;9.20;3.80;;;;;;;;;;5101115;28;20036;-78
2023/10/24 12:02:08;;;;;;;9.90;3.28;;;;;;;;;;5097257;28;20066;-75
2023/10/24 12:04:34;;;;;;;8.02;3.22;;;;;;;;;;5098066;28;20136;-76
2023/10/24 12:07:00;;;;;;;10.50;3.42;;;;;;;;;;5098263;28;20024;-76
2023/10/24 12:09:25;;;;;;;9.00;3.15;;;;;;;;;;5099437;28;20109;-76
2023/10/24 12:11:51;;;;;;;8.52;3.20;;;;;;;;;;5098892;28;20447;-76
2023/10/24 12:14:17;;;;;;;12.27;3.13;;;;;;;;;;5100013;28;20102;-78
2023/10/24 12:16:46;;;;;;;11.40;3.78;;;;;;;;;;5096992;28;20111;-76
2023/10/24 12:19:11;;;;;;;;;;;;;;;;;;5098604;28;20105;-76
2023/10/24 12:21:36;;;;;;;10.87;3.20;;;;;;;;;;5099712;28;19966;-77
2023/10/24 12:24:02;;;;;;;8.10;2.67;;;;;;;;;;5098368;28;20346;-78
2023/10/24 12:26:27;;;;;;;11.00;3.50;;;;;;;;;;5098115;28;20099;-77
2023/10/24 12:28:52;;;;;;;7.18;2.80;;;;;;;;;;5099709;28;20043;-77
2023/10/24 12:31:18;;;;;;;5.68;2.58;;;;;;;;;;5097352;28;20028;-77
2023/10/24 12:33:43;;;;;;;14.02;3.58;;;;;;;;;;5096622;28;20020;-76
2023/10/24 12:36:08;;;;;;;12.30;3.53;;;;;;;;;;5098851;28;20051;-77
2023/10/24 12:38:37;;;;;;;7.90;2.63;;;;;;;;;;5097949;28;20465;-76
2023/10/24 12:41:03;;;;;;;10.57;2.95;;;;;;;;;;5099879;28;20024;-78
2023/10/24 12:43:28;;;;;;;11.27;3.22;;;;;;;;;;5098013;28;20720;-75
2023/10/24 12:45:54;;;;;;;7.70;2.85;;;;;;;;;;5099389;28;20023;-76
2023/10/24 12:48:19;;;;;;;8.65;3.25;;;;;;;;;;5096674;28;20462;-76
2023/10/24 12:50:45;;;;;;;19.35;10.02;;;;;;;;;;5097847;28;20815;-76
2023/10/24 12:53:10;;;;;;;10.65;3.90;;;;;;;;;;5099263;28;20442;-77
2023/10/24 12:55:35;;;;;;;10.25;4.65;;;;;;;;;;5099523;28;20024;-77
2023/10/24 12:58:01;;;;;;;8.73;3.40;;;;;;;;;;5097813;28;20027;-76
2023/10/24 13:00:26;;;;;;;9.70;3.28;;;;;;;;;;5099236;28;20023;-77
2023/10/24 13:02:53;;;;;;;12.00;3.35;;;;;;;;;;5099214;28;20028;-77
2023/10/24 13:05:19;;;;;;;17.42;9.27;;;;;;;;;;5097797;28;20059;-75
2023/10/24 13:07:44;;;;;;;26.85;19.58;;;;;;;;;;5097020;28;20140;-78
2023/10/24 13:10:09;;;;;;;8.85;4.32;;;;;;;;;;5096221;28;20043;-76
2023/10/24 13:12:35;;;;;;;9.90;3.97;;;;;;;;;;5097229;28;20020;-78
2023/10/24 13:15:00;;;;;;;10.40;3.88;;;;;;;;;;5098665;28;20103;-76
2023/10/24 13:17:25;;;;;;;6.90;2.90;;;;;;;;;;5099866;28;20023;-76
2023/10/24 13:19:51;;;;;;;8.48;3.00;;;;;;;;;;5099377;28;20043;-81
2023/10/24 13:22:17;;;;;;;7.57;2.85;;;;;;;;;;5096750;28;20035;-74
2023/10/24 13:24:42;;;;;;;7.30;2.63;;;;;;;;;;5086997;28;20080;-74
2023/10/24 13:27:08;;;;;;;8.65;2.80;;;;;;;;;;5098784;28;20031;-74
2023/10/24 13:29:33;;;;;;;10.35;2.92;;;;;;;;;;5092086;28;20431;-75
2023/10/24 13:32:00;;;;;;;10.48;3.03;;;;;;;;;;5083986;28;20399;-74
2023/10/24 13:34:25;;;;;;;6.75;2.58;;;;;;;;;;5084508;28;20028;-74
2023/10/24 13:36:51;;;;;;;9.85;2.80;;;;;;;;;;5084489;28;20059;-74
2023/10/24 13:39:16;;;;;;;10.57;2.72;;;;;;;;;;5079425;28;20058;-76
2023/10/24 13:41:42;;;;;;;11.65;3.70;;;;;;;;;;5096573;28;20042;-74
2023/10/24 13:44:07;;;;;;;8.50;2.70;;;;;;;;;;5100132;28;20063;-74
2023/10/24 13:46:33;;;;;;;6.68;2.63;;;;;;;;;;5088582;28;20020;-75
2023/10/24 13:48:58;;;;;;;9.10;2.80;;;;;;;;;;5088233;28;20027;-74
2023/10/24 13:51:23;;;;;;;8.40;3.40;;;;;;;;;;5086609;28;20032;-71
2023/10/24 13:53:49;;;;;;;11.00;2.90;;;;;;;;;;5086105;28;20081;-75
2023/10/24 13:56:15;;;;;;;5.60;3.13;;;;;;;;;;5087367;28;20031;-76
2023/10/24 13:58:40;;;;;;;6.80;2.45;;;;;;;;;;5087974;28;20039;-72
2023/10/24 14:01:06;;;;;;;8.05;2.80;;;;;;;;;;5086495;28;20313;-78
2023/10/24 14:03:31;;;;;;;6.75;2.90;;;;;;;;;;5084888;28;20039;-76
2023/10/24 14:05:57;;;;;;;7.90;3.08;;;;;;;;;;5088439;28;20454;-75
2023/10/24 14:08:22;;;;;;;6.18;2.40;;;;;;;;;;5089523;28;20027;-76
2023/10/24 14:10:48;;;;;;;8.63;2.53;;;;;;;;;;5101021;28;20084;-76
2023/10/24 14:13:13;;;;;;;10.70;2.92;;;;;;;;;;5093298;28;20040;-77
2023/10/24 14:15:39;;;;;;;9.40;3.28;;;;;;;;;;5075381;28;20020;-78
2023/10/24 14:18:04;;;;;;;8.50;2.75;;;;;;;;;;5085031;28;20032;-77
2023/10/24 14:20:31;;;;;;;9.05;2.88;;;;;;;;;;5077423;28;20024;-77
2023/10/24 14:22:56;;;;;;;8.27;3.13;;;;;;;;;;5085569;28;20572;-76
2023/10/24 14:25:22;;;;;;;7.45;3.45;;;;;;;;;;5080976;28;20048;-79